createdAt,value
2019-02-19T00:01:01.337Z,5.37
2019-02-19T00:02:06.984Z,5.35
2019-02-19T00:03:11.085Z,5.37
2019-02-19T00:04:15.274Z,5.37
2019-02-19T00:05:19.284Z,5.37
2019-02-19T00:06:23.538Z,5.38
2019-02-19T00:07:27.713Z,5.36
2019-02-19T00:08:31.954Z,5.36
2019-02-19T00:09:35.902Z,5.34
2019-02-19T00:10:39.906Z,5.34
2019-02-19T00:11:44.083Z,5.33
2019-02-19T00:12:48.343Z,5.33
2019-02-19T00:13:52.521Z,5.34
2019-02-19T00:14:56.563Z,5.35
2019-02-19T00:16:00.500Z,5.33
2019-02-19T00:17:04.431Z,5.32
2019-02-19T00:18:08.433Z,5.33
2019-02-19T00:19:12.366Z,5.31
2019-02-19T00:20:16.312Z,5.30
2019-02-19T00:21:20.315Z,5.28
2019-02-19T00:22:24.318Z,5.26
2019-02-19T00:23:28.504Z,5.24
2019-02-19T00:24:32.498Z,5.23
2019-02-19T00:25:36.760Z,5.23
2019-02-19T00:26:42.196Z,5.22
2019-02-19T00:27:46.606Z,5.22
2019-02-19T00:28:51.196Z,5.22
2019-02-19T00:29:55.483Z,5.22
2019-02-19T00:30:59.613Z,5.20
2019-02-19T00:32:03.838Z,5.20
2019-02-19T00:33:08.334Z,5.19
2019-02-19T00:34:13.043Z,5.19
2019-02-19T00:35:17.559Z,5.18
2019-02-19T00:36:21.557Z,5.19
2019-02-19T00:37:25.620Z,5.18
2019-02-19T00:38:29.573Z,5.18
2019-02-19T00:39:33.972Z,5.17
2019-02-19T00:40:38.073Z,5.17
2019-02-19T00:41:42.075Z,5.15
2019-02-19T00:42:46.062Z,5.14
2019-02-19T00:43:50.276Z,5.13
2019-02-19T00:44:54.229Z,5.11
2019-02-19T00:45:58.152Z,5.10
2019-02-19T00:47:02.494Z,5.09
2019-02-19T00:48:06.737Z,5.09
2019-02-19T00:49:10.665Z,5.07
2019-02-19T00:50:14.902Z,5.06
2019-02-19T00:51:19.107Z,5.04
2019-02-19T00:52:23.407Z,5.03
2019-02-19T00:53:27.407Z,5.03
2019-02-19T00:54:31.986Z,5.02
2019-02-19T00:55:36.234Z,5.02
2019-02-19T00:56:40.423Z,5.01
2019-02-19T00:57:44.678Z,4.99
2019-02-19T00:58:48.606Z,4.87
2019-02-19T00:59:52.615Z,4.99
2019-02-19T01:00:56.564Z,4.97
2019-02-19T01:02:00.731Z,4.96
2019-02-19T01:03:05.040Z,4.94
2019-02-19T01:04:09.287Z,4.94
2019-02-19T01:05:13.486Z,4.94
2019-02-19T01:06:17.506Z,4.90
2019-02-19T01:07:21.766Z,4.89
2019-02-19T01:08:25.798Z,4.87
2019-02-19T01:09:29.969Z,4.87
2019-02-19T01:10:33.970Z,4.86
2019-02-19T01:11:38.159Z,4.82
2019-02-19T01:12:42.330Z,4.75
2019-02-19T01:13:46.589Z,4.73
2019-02-19T01:14:50.835Z,4.73
2019-02-19T01:15:55.545Z,4.71
2019-02-19T01:16:59.838Z,4.70
2019-02-19T01:18:03.838Z,4.72
2019-02-19T01:19:08.150Z,4.70
2019-02-19T01:20:12.164Z,4.69
2019-02-19T01:21:16.178Z,4.69
2019-02-19T01:22:20.838Z,4.69
2019-02-19T01:23:24.855Z,4.69
2019-02-19T01:24:29.103Z,4.69
2019-02-19T01:25:33.034Z,4.70
2019-02-19T01:26:37.430Z,4.71
2019-02-19T01:27:41.367Z,4.71
2019-02-19T01:28:45.896Z,4.71
2019-02-19T01:29:50.411Z,4.73
2019-02-19T01:30:54.477Z,4.72
2019-02-19T01:31:58.523Z,4.70
2019-02-19T01:33:02.506Z,4.71
2019-02-19T01:34:06.649Z,4.70
2019-02-19T01:35:11.028Z,4.70
2019-02-19T01:36:14.958Z,4.70
2019-02-19T01:37:19.029Z,4.69
2019-02-19T01:38:23.087Z,4.70
2019-02-19T01:39:26.904Z,4.68
2019-02-19T01:40:30.839Z,4.67
2019-02-19T01:41:34.857Z,4.66
2019-02-19T01:42:38.962Z,4.67
2019-02-19T01:43:43.123Z,4.65
2019-02-19T01:44:47.408Z,4.64
2019-02-19T01:45:51.366Z,4.64
2019-02-19T01:46:55.313Z,4.64
2019-02-19T01:47:59.239Z,4.64
2019-02-19T01:49:03.550Z,4.65
2019-02-19T01:50:08.325Z,4.63
2019-02-19T01:51:12.566Z,4.62
2019-02-19T01:52:16.826Z,4.61
2019-02-19T01:53:20.997Z,4.59
2019-02-19T01:54:25.506Z,4.59
2019-02-19T01:55:29.607Z,4.58
2019-02-19T01:56:33.870Z,4.57
2019-02-19T01:57:37.814Z,4.60
2019-02-19T01:58:41.986Z,4.57
2019-02-19T01:59:45.843Z,4.58
2019-02-19T02:00:49.844Z,4.60
2019-02-19T02:01:53.771Z,4.57
2019-02-19T02:02:57.651Z,4.54
2019-02-19T02:04:01.749Z,4.56
2019-02-19T02:05:06.045Z,4.55
2019-02-19T02:06:10.047Z,4.50
2019-02-19T02:07:14.067Z,4.54
2019-02-19T02:08:17.998Z,4.50
2019-02-19T02:09:21.999Z,4.47
2019-02-19T02:10:25.924Z,4.53
2019-02-19T02:11:30.057Z,4.48
2019-02-19T02:12:34.004Z,4.44
2019-02-19T02:13:38.350Z,4.52
2019-02-19T02:14:42.273Z,4.44
2019-02-19T02:15:46.445Z,4.38
2019-02-19T02:16:50.455Z,4.41
2019-02-19T02:17:54.395Z,4.39
2019-02-19T02:18:58.571Z,4.35
2019-02-19T02:20:02.570Z,4.30
2019-02-19T02:21:06.831Z,4.28
2019-02-19T02:22:10.819Z,4.26
2019-02-19T02:23:15.004Z,4.26
2019-02-19T02:24:19.002Z,4.26
2019-02-19T02:25:23.640Z,4.28
2019-02-19T02:26:27.823Z,4.32
2019-02-19T02:27:31.680Z,4.32
2019-02-19T02:28:35.802Z,4.31
2019-02-19T02:29:39.895Z,4.30
2019-02-19T02:30:43.846Z,4.31
2019-02-19T02:31:47.991Z,4.31
2019-02-19T02:32:52.024Z,4.39
2019-02-19T02:33:55.879Z,4.38
2019-02-19T02:34:59.747Z,4.39
2019-02-19T02:36:03.822Z,4.37
2019-02-19T02:37:07.935Z,4.30
2019-02-19T02:38:12.305Z,4.22
2019-02-19T02:39:16.237Z,4.19
2019-02-19T02:40:20.508Z,4.19
2019-02-19T02:41:24.514Z,4.18
2019-02-19T02:42:28.949Z,4.17
2019-02-19T02:43:33.129Z,4.22
2019-02-19T02:44:37.121Z,4.21
2019-02-19T02:45:41.331Z,4.20
2019-02-19T02:46:45.541Z,4.20
2019-02-19T02:47:49.541Z,4.17
2019-02-19T02:48:53.671Z,4.23
2019-02-19T02:49:57.857Z,4.21
2019-02-19T02:51:01.784Z,4.20
2019-02-19T02:52:05.707Z,4.20
2019-02-19T02:53:09.644Z,4.19
2019-02-19T02:54:13.827Z,4.19
2019-02-19T02:55:17.759Z,4.20
2019-02-19T02:56:21.763Z,4.20
2019-02-19T02:57:26.273Z,4.21
2019-02-19T02:58:30.382Z,4.22
2019-02-19T02:59:34.310Z,4.22
2019-02-19T03:00:38.812Z,4.22
2019-02-19T03:01:43.241Z,4.23
2019-02-19T03:02:47.116Z,4.23
2019-02-19T03:03:51.565Z,4.23
2019-02-19T03:04:55.673Z,4.23
2019-02-19T03:06:11.682Z,4.23
2019-02-19T03:07:29.323Z,4.23
2019-02-19T03:08:33.512Z,4.21
2019-02-19T03:09:37.440Z,4.22
2019-02-19T03:10:41.622Z,4.22
2019-02-19T03:11:46.329Z,4.21
2019-02-19T03:12:50.546Z,4.21
2019-02-19T03:13:54.488Z,4.23
2019-02-19T03:14:58.912Z,4.21
2019-02-19T03:16:03.167Z,4.23
2019-02-19T03:17:07.022Z,4.25
2019-02-19T03:18:10.884Z,4.25
2019-02-19T03:19:15.155Z,4.27
2019-02-19T03:20:19.406Z,4.27
2019-02-19T03:21:23.402Z,4.28
2019-02-19T03:22:27.350Z,4.28
2019-02-19T03:23:31.280Z,4.28
2019-02-19T03:24:35.885Z,4.29
2019-02-19T03:25:39.817Z,4.27
2019-02-19T03:26:44.296Z,4.29
2019-02-19T03:27:48.230Z,4.25
2019-02-19T03:28:52.169Z,4.23
2019-02-19T03:29:56.710Z,4.25
2019-02-19T03:31:00.916Z,4.20
2019-02-19T03:32:04.962Z,4.18
2019-02-19T03:33:09.431Z,4.18
2019-02-19T03:34:13.297Z,4.21
2019-02-19T03:35:17.368Z,4.16
2019-02-19T03:36:21.303Z,4.21
2019-02-19T03:37:25.941Z,4.18
2019-02-19T03:38:29.976Z,4.14
2019-02-19T03:39:33.959Z,4.13
2019-02-19T03:40:38.149Z,4.10
2019-02-19T03:41:42.087Z,4.08
2019-02-19T03:42:46.029Z,4.06
2019-02-19T03:43:50.313Z,4.06
2019-02-19T03:44:54.880Z,4.08
2019-02-19T03:45:58.804Z,4.08
2019-02-19T03:47:03.021Z,4.08
2019-02-19T03:48:07.288Z,4.09
2019-02-19T03:49:11.589Z,4.10
2019-02-19T03:50:16.214Z,4.08
2019-02-19T03:51:20.413Z,4.06
2019-02-19T03:52:24.411Z,4.04
2019-02-19T03:53:28.823Z,4.03
2019-02-19T03:54:33.132Z,4.04
2019-02-19T03:55:37.851Z,4.04
2019-02-19T03:56:41.968Z,4.04
2019-02-19T03:57:46.086Z,4.05
2019-02-19T03:58:50.018Z,4.06
2019-02-19T03:59:54.101Z,4.09
2019-02-19T04:00:58.883Z,4.09
2019-02-19T04:02:03.225Z,4.10
2019-02-19T04:03:07.800Z,4.11
2019-02-19T04:04:12.088Z,4.13
2019-02-19T04:05:16.417Z,4.13
2019-02-19T04:06:20.418Z,4.14
2019-02-19T04:07:24.347Z,4.16
2019-02-19T04:08:28.277Z,4.17
2019-02-19T04:09:32.207Z,4.15
2019-02-19T04:10:36.461Z,4.15
2019-02-19T04:11:40.389Z,4.16
2019-02-19T04:12:44.647Z,4.18
2019-02-19T04:13:48.822Z,4.13
2019-02-19T04:14:52.995Z,4.11
2019-02-19T04:15:57.024Z,4.09
2019-02-19T04:17:01.267Z,4.09
2019-02-19T04:18:05.442Z,4.14
2019-02-19T04:19:09.619Z,4.10
2019-02-19T04:20:14.121Z,4.11
2019-02-19T04:21:18.400Z,4.09
2019-02-19T04:22:22.323Z,4.06
2019-02-19T04:23:26.423Z,4.08
2019-02-19T04:24:30.278Z,4.10
2019-02-19T04:25:34.396Z,4.04
2019-02-19T04:26:38.831Z,4.00
2019-02-19T04:27:43.078Z,4.00
2019-02-19T04:28:46.930Z,4.04
2019-02-19T04:29:51.032Z,4.01
2019-02-19T04:30:54.988Z,3.95
2019-02-19T04:31:58.835Z,3.91
2019-02-19T04:33:03.355Z,3.90
2019-02-19T04:34:07.571Z,3.92
2019-02-19T04:35:11.610Z,3.90
2019-02-19T04:36:15.912Z,3.87
2019-02-19T04:37:19.937Z,3.90
2019-02-19T04:38:23.973Z,3.95
2019-02-19T04:39:28.001Z,3.85
2019-02-19T04:40:32.413Z,3.80
2019-02-19T04:41:36.452Z,3.85
2019-02-19T04:42:40.481Z,3.79
2019-02-19T04:43:44.751Z,3.79
2019-02-19T04:44:48.709Z,3.85
2019-02-19T04:45:52.746Z,3.81
2019-02-19T04:46:56.791Z,3.75
2019-02-19T04:48:01.084Z,3.72
2019-02-19T04:49:05.648Z,3.78
2019-02-19T04:50:09.695Z,3.73
2019-02-19T04:51:14.249Z,3.71
2019-02-19T04:52:18.226Z,3.72
2019-02-19T04:53:22.241Z,3.74
2019-02-19T04:54:26.513Z,3.74
2019-02-19T04:55:30.550Z,3.77
2019-02-19T04:56:34.734Z,3.75
2019-02-19T04:57:38.679Z,3.74
2019-02-19T04:58:42.637Z,3.72
2019-02-19T04:59:46.658Z,3.72
2019-02-19T05:00:50.971Z,3.74
2019-02-19T05:01:54.938Z,3.73
2019-02-19T05:02:59.231Z,3.71
2019-02-19T05:04:03.536Z,3.71
2019-02-19T05:05:07.564Z,3.75
2019-02-19T05:06:11.520Z,3.74
2019-02-19T05:07:15.550Z,3.70
2019-02-19T05:08:19.912Z,3.71
2019-02-19T05:09:24.049Z,3.66
2019-02-19T05:10:28.258Z,3.71
2019-02-19T05:11:32.231Z,3.73
2019-02-19T05:12:36.165Z,3.67
2019-02-19T05:13:40.185Z,3.66
2019-02-19T05:14:44.060Z,3.61
2019-02-19T05:15:48.089Z,3.58
2019-02-19T05:16:52.363Z,3.57
2019-02-19T05:17:56.816Z,3.54
2019-02-19T05:19:00.709Z,3.49
2019-02-19T05:20:05.372Z,3.54
2019-02-19T05:21:09.695Z,3.53
2019-02-19T05:22:13.728Z,3.48
2019-02-19T05:23:18.113Z,3.47
2019-02-19T05:24:22.052Z,3.45
2019-02-19T05:25:26.100Z,3.54
2019-02-19T05:26:30.048Z,3.50
2019-02-19T05:27:34.429Z,3.47
2019-02-19T05:28:38.728Z,3.50
2019-02-19T05:29:42.771Z,3.55
2019-02-19T05:30:47.042Z,3.54
2019-02-19T05:31:51.070Z,3.47
2019-02-19T05:32:55.154Z,3.44
2019-02-19T05:33:59.204Z,3.44
2019-02-19T05:35:03.571Z,3.47
2019-02-19T05:36:09.125Z,3.47
2019-02-19T05:37:13.503Z,3.53
2019-02-19T05:38:17.404Z,3.51
2019-02-19T05:39:22.018Z,3.56
2019-02-19T05:40:26.321Z,3.54
2019-02-19T05:41:30.353Z,3.53
2019-02-19T05:42:35.249Z,3.61
2019-02-19T05:43:39.462Z,3.57
2019-02-19T05:44:43.833Z,3.54
2019-02-19T05:45:48.106Z,3.59
2019-02-19T05:46:52.374Z,3.56
2019-02-19T05:47:56.425Z,3.44
2019-02-19T05:49:00.762Z,3.43
2019-02-19T05:50:05.124Z,3.38
2019-02-19T05:51:09.148Z,3.33
2019-02-19T05:52:13.231Z,3.31
2019-02-19T05:53:17.252Z,3.32
2019-02-19T05:54:21.267Z,3.34
2019-02-19T05:55:25.662Z,3.42
2019-02-19T05:56:30.268Z,3.40
2019-02-19T05:57:34.304Z,3.36
2019-02-19T05:58:38.414Z,3.37
2019-02-19T05:59:42.417Z,3.40
2019-02-19T06:00:46.609Z,3.39
2019-02-19T06:01:50.523Z,3.41
2019-02-19T06:02:54.694Z,3.45
2019-02-19T06:03:58.713Z,3.47
2019-02-19T06:05:02.890Z,3.47
2019-02-19T06:06:06.893Z,3.49
2019-02-19T06:07:11.016Z,3.53
2019-02-19T06:08:15.443Z,3.64
2019-02-19T06:09:19.460Z,3.62
2019-02-19T06:10:23.892Z,3.62
2019-02-19T06:11:27.814Z,3.65
2019-02-19T06:12:31.915Z,3.64
2019-02-19T06:13:36.040Z,3.62
2019-02-19T06:14:40.276Z,3.63
2019-02-19T06:15:44.276Z,3.59
2019-02-19T06:16:48.528Z,3.61
2019-02-19T06:17:52.737Z,3.68
2019-02-19T06:18:56.700Z,3.65
2019-02-19T06:20:00.890Z,3.66
2019-02-19T06:21:05.134Z,3.71
2019-02-19T06:22:09.311Z,3.72
2019-02-19T06:23:13.754Z,3.76
2019-02-19T06:24:17.968Z,3.79
2019-02-19T06:25:21.891Z,3.83
2019-02-19T06:26:25.830Z,3.93
2019-02-19T06:27:30.098Z,3.94
2019-02-19T06:28:34.160Z,3.95
2019-02-19T06:29:38.961Z,3.99
2019-02-19T06:30:42.881Z,4.04
2019-02-19T06:31:55.193Z,4.10
2019-02-19T06:32:53.394Z,4.19
2019-02-19T06:33:57.338Z,4.16
2019-02-19T06:35:01.558Z,4.17
2019-02-19T06:36:05.838Z,4.14
2019-02-19T06:37:10.003Z,4.15
2019-02-19T06:38:13.947Z,4.11
2019-02-19T06:39:18.579Z,4.12
2019-02-19T06:40:27.437Z,4.12
2019-02-19T06:41:31.442Z,4.15
2019-02-19T06:42:35.450Z,4.23
2019-02-19T06:43:39.531Z,4.23
2019-02-19T06:44:43.785Z,4.28
2019-02-19T06:45:47.716Z,4.30
2019-02-19T06:46:51.991Z,4.28
2019-02-19T06:47:55.995Z,4.28
2019-02-19T06:49:00.094Z,4.32
2019-02-19T06:50:04.406Z,4.38
2019-02-19T06:51:08.336Z,4.41
2019-02-19T06:52:12.261Z,4.38
2019-02-19T06:53:16.435Z,4.32
2019-02-19T06:54:20.955Z,4.37
2019-02-19T06:55:25.202Z,4.32
2019-02-19T06:56:29.551Z,4.34
2019-02-19T06:57:33.722Z,4.38
2019-02-19T06:58:37.899Z,4.30
2019-02-19T06:59:42.114Z,4.28
2019-02-19T07:00:46.223Z,4.23
2019-02-19T07:02:14.486Z,4.23
2019-02-19T07:03:23.454Z,4.18
2019-02-19T07:04:34.707Z,4.10
2019-02-19T07:05:38.706Z,4.10
2019-02-19T07:06:42.633Z,4.12
2019-02-19T07:07:46.917Z,4.09
2019-02-19T07:08:50.849Z,4.11
2019-02-19T07:09:54.864Z,4.04
2019-02-19T07:10:59.201Z,4.03
2019-02-19T07:12:03.138Z,4.07
2019-02-19T07:13:07.450Z,4.02
2019-02-19T07:14:11.453Z,4.04
2019-02-19T07:15:15.710Z,4.06
2019-02-19T07:16:19.916Z,4.13
2019-02-19T07:17:23.766Z,4.18
2019-02-19T07:18:27.694Z,4.23
2019-02-19T07:19:31.955Z,4.28
2019-02-19T07:20:35.936Z,4.28
2019-02-19T07:21:39.989Z,4.25
2019-02-19T07:22:43.988Z,4.28
2019-02-19T07:23:48.366Z,4.29
2019-02-19T07:24:52.679Z,4.29
2019-02-19T07:25:56.762Z,4.32
2019-02-19T07:27:00.702Z,4.39
2019-02-19T07:28:04.751Z,4.33
2019-02-19T07:29:08.606Z,4.40
2019-02-19T07:30:12.739Z,4.40
2019-02-19T07:31:17.055Z,4.37
2019-02-19T07:32:21.209Z,4.39
2019-02-19T07:33:27.362Z,4.34
2019-02-19T07:34:31.651Z,4.39
2019-02-19T07:35:35.855Z,4.37
2019-02-19T07:36:39.982Z,4.41
2019-02-19T07:37:44.374Z,4.45
2019-02-19T07:38:48.678Z,4.52
2019-02-19T07:39:52.618Z,4.51
2019-02-19T07:40:56.732Z,4.46
2019-02-19T07:42:01.091Z,4.49
2019-02-19T07:43:05.102Z,4.62
2019-02-19T07:44:09.039Z,4.65
2019-02-19T07:45:13.410Z,4.63
2019-02-19T07:46:19.220Z,4.62
2019-02-19T07:47:24.858Z,4.72
2019-02-19T07:48:29.457Z,4.82
2019-02-19T07:49:33.603Z,4.74
2019-02-19T07:50:37.555Z,4.75
2019-02-19T07:51:42.731Z,4.80
2019-02-19T07:52:47.243Z,4.84
2019-02-19T07:53:51.133Z,4.82
2019-02-19T07:54:58.249Z,4.83
2019-02-19T07:56:02.681Z,4.95
2019-02-19T07:57:07.000Z,4.94
2019-02-19T07:58:11.184Z,4.94
2019-02-19T07:59:15.415Z,5.01
2019-02-19T08:00:20.369Z,5.07
2019-02-19T08:01:24.645Z,5.06
2019-02-19T08:02:28.578Z,5.07
2019-02-19T08:03:32.883Z,5.12
2019-02-19T08:04:36.816Z,5.11
2019-02-19T08:05:41.003Z,5.14
2019-02-19T08:06:44.953Z,5.18
2019-02-19T08:07:48.884Z,5.21
2019-02-19T08:08:53.079Z,5.27
2019-02-19T08:09:56.929Z,5.30
2019-02-19T08:11:01.121Z,5.27
2019-02-19T08:12:05.366Z,5.23
2019-02-19T08:13:09.796Z,5.21
2019-02-19T08:14:13.912Z,5.26
2019-02-19T08:15:17.908Z,5.28
2019-02-19T08:16:21.842Z,5.25
2019-02-19T08:17:33.077Z,5.22
2019-02-19T08:18:31.942Z,5.19
2019-02-19T08:19:36.039Z,5.10
2019-02-19T08:20:39.962Z,5.03
2019-02-19T08:21:43.979Z,5.04
2019-02-19T08:22:48.229Z,5.06
2019-02-19T08:23:52.335Z,5.12
2019-02-19T08:24:56.269Z,5.15
2019-02-19T08:26:00.490Z,5.19
2019-02-19T08:27:04.753Z,5.20
2019-02-19T08:28:08.998Z,5.14
2019-02-19T08:29:14.044Z,5.15
2019-02-19T08:30:18.155Z,5.21
2019-02-19T08:31:22.495Z,5.19
2019-02-19T08:32:27.064Z,5.15
2019-02-19T08:33:31.195Z,5.17
2019-02-19T08:34:35.126Z,5.20
2019-02-19T08:35:39.573Z,5.27
2019-02-19T08:36:45.386Z,5.29
2019-02-19T08:37:49.773Z,5.29
2019-02-19T08:38:53.878Z,5.30
2019-02-19T08:39:57.978Z,5.30
2019-02-19T08:41:02.241Z,5.39
2019-02-19T08:42:06.851Z,5.41
2019-02-19T08:43:11.364Z,5.43
2019-02-19T08:44:16.091Z,5.35
2019-02-19T08:45:20.135Z,5.39
2019-02-19T08:46:24.802Z,5.38
2019-02-19T08:47:29.010Z,5.43
2019-02-19T08:48:33.142Z,5.41
2019-02-19T08:49:37.416Z,5.36
2019-02-19T08:50:41.693Z,5.36
2019-02-19T08:51:45.579Z,5.39
2019-02-19T08:52:49.950Z,5.44
2019-02-19T08:53:54.242Z,5.47
2019-02-19T08:54:58.103Z,5.39
2019-02-19T08:56:02.398Z,5.42
2019-02-19T08:57:06.695Z,5.47
2019-02-19T08:58:10.702Z,5.49
2019-02-19T08:59:14.659Z,5.50
2019-02-19T09:00:18.843Z,5.51
2019-02-19T09:01:22.854Z,5.51
2019-02-19T09:02:27.295Z,5.57
2019-02-19T09:03:31.499Z,5.63
2019-02-19T09:04:36.255Z,5.71
2019-02-19T09:05:40.288Z,5.77
2019-02-19T09:06:44.624Z,5.82
2019-02-19T09:07:48.490Z,5.89
2019-02-19T09:08:52.969Z,5.95
2019-02-19T09:09:56.827Z,5.98
2019-02-19T09:11:01.026Z,6.01
2019-02-19T09:12:04.984Z,6.05
2019-02-19T09:13:09.235Z,6.11
2019-02-19T09:14:13.178Z,6.17
2019-02-19T09:15:17.364Z,6.22
2019-02-19T09:16:21.641Z,6.26
2019-02-19T09:17:25.666Z,6.29
2019-02-19T09:18:30.008Z,6.34
2019-02-19T09:19:33.946Z,6.36
2019-02-19T09:20:37.881Z,6.38
2019-02-19T09:21:42.461Z,6.41
2019-02-19T09:22:46.416Z,6.46
2019-02-19T09:23:50.440Z,6.47
2019-02-19T09:24:55.379Z,6.51
2019-02-19T09:26:00.019Z,6.53
2019-02-19T09:27:04.036Z,6.55
2019-02-19T09:28:08.326Z,6.57
2019-02-19T09:29:12.619Z,6.59
2019-02-19T09:30:16.636Z,6.61
2019-02-19T09:31:21.256Z,6.62
2019-02-19T09:32:25.421Z,6.65
2019-02-19T09:33:29.367Z,6.65
2019-02-19T09:34:33.298Z,6.67
2019-02-19T09:35:37.227Z,6.69
2019-02-19T09:36:41.153Z,6.70
2019-02-19T09:37:45.343Z,6.72
2019-02-19T09:38:50.123Z,6.76
2019-02-19T09:39:54.231Z,6.78
2019-02-19T09:40:58.331Z,6.81
2019-02-19T09:42:11.520Z,6.85
2019-02-19T09:43:15.767Z,6.87
2019-02-19T09:44:19.784Z,6.87
2019-02-19T09:45:23.711Z,6.89
2019-02-19T09:46:27.954Z,6.90
2019-02-19T09:47:32.130Z,6.91
2019-02-19T09:48:36.314Z,6.93
2019-02-19T09:49:40.250Z,6.94
2019-02-19T09:50:44.250Z,6.94
2019-02-19T09:51:48.195Z,6.96
2019-02-19T09:52:59.735Z,6.97
2019-02-19T09:53:58.035Z,6.79
2019-02-19T09:55:01.976Z,7.00
2019-02-19T09:56:05.982Z,7.02
2019-02-19T09:57:10.244Z,7.06
2019-02-19T09:58:14.160Z,7.08
2019-02-19T09:59:18.343Z,7.13
2019-02-19T10:00:22.276Z,7.16
2019-02-19T10:01:28.201Z,7.18
2019-02-19T10:02:32.009Z,7.22
2019-02-19T10:03:35.951Z,7.25
2019-02-19T10:04:39.883Z,7.32
2019-02-19T10:05:44.072Z,7.36
2019-02-19T10:06:48.075Z,7.42
2019-02-19T10:07:52.078Z,7.46
2019-02-19T10:08:56.095Z,7.52
2019-02-19T10:10:00.352Z,7.56
2019-02-19T10:11:04.328Z,7.62
2019-02-19T10:12:08.542Z,7.65
2019-02-19T10:13:12.553Z,7.69
2019-02-19T10:14:16.426Z,7.71
2019-02-19T10:15:20.749Z,7.74
2019-02-19T10:16:24.941Z,7.75
2019-02-19T10:17:29.136Z,7.78
2019-02-19T10:18:33.137Z,7.78
2019-02-19T10:19:37.449Z,7.80
2019-02-19T10:20:41.865Z,7.81
2019-02-19T10:21:46.091Z,7.84
2019-02-19T10:22:50.019Z,7.87
2019-02-19T10:23:54.296Z,7.91
2019-02-19T10:24:58.504Z,7.94
2019-02-19T10:26:02.527Z,7.99
2019-02-19T10:27:06.503Z,8.04
2019-02-19T10:28:10.639Z,8.10
2019-02-19T10:29:14.923Z,8.12
2019-02-19T10:30:19.026Z,8.17
2019-02-19T10:31:23.613Z,8.19
2019-02-19T10:32:28.126Z,8.27
2019-02-19T10:33:32.197Z,8.31
2019-02-19T10:34:36.061Z,8.35
2019-02-19T10:35:40.334Z,8.43
2019-02-19T10:36:44.846Z,8.48
2019-02-19T10:37:49.022Z,8.51
2019-02-19T10:38:52.965Z,8.61
2019-02-19T10:39:56.910Z,8.65
2019-02-19T10:41:01.464Z,8.68
2019-02-19T10:42:05.720Z,8.73
2019-02-19T10:43:09.642Z,8.75
2019-02-19T10:44:13.522Z,8.78
2019-02-19T10:45:18.207Z,8.82
2019-02-19T10:46:22.205Z,8.84
2019-02-19T10:47:26.212Z,8.86
2019-02-19T10:48:30.726Z,8.88
2019-02-19T10:49:34.920Z,8.89
2019-02-19T10:50:39.023Z,8.90
2019-02-19T10:51:43.126Z,8.94
2019-02-19T10:52:47.296Z,8.94
2019-02-19T10:53:51.218Z,8.96
2019-02-19T10:54:55.080Z,8.96
2019-02-19T10:55:59.371Z,8.97
2019-02-19T10:57:03.383Z,8.99
2019-02-19T10:58:07.620Z,9.01
2019-02-19T10:59:11.758Z,9.01
2019-02-19T11:00:17.889Z,9.01
2019-02-19T11:01:21.918Z,9.01
2019-02-19T11:02:25.926Z,9.03
2019-02-19T11:03:29.940Z,9.03
2019-02-19T11:04:34.202Z,9.04
2019-02-19T11:05:38.394Z,9.05
2019-02-19T11:06:42.323Z,9.05
2019-02-19T11:07:46.586Z,9.07
2019-02-19T11:08:50.839Z,9.09
2019-02-19T11:09:54.836Z,9.12
2019-02-19T11:10:59.106Z,9.12
2019-02-19T11:12:03.118Z,9.13
2019-02-19T11:13:07.319Z,9.14
2019-02-19T11:14:11.486Z,9.14
2019-02-19T11:15:17.430Z,9.15
2019-02-19T11:16:21.557Z,9.15
2019-02-19T11:17:25.806Z,9.17
2019-02-19T11:18:30.019Z,9.18
2019-02-19T11:19:33.972Z,9.19
2019-02-19T11:20:37.990Z,9.22
2019-02-19T11:21:42.438Z,9.25
2019-02-19T11:22:47.132Z,9.27
2019-02-19T11:23:51.263Z,9.30
2019-02-19T11:24:55.627Z,9.32
2019-02-19T11:25:59.862Z,9.36
2019-02-19T11:27:03.878Z,9.39
2019-02-19T11:28:07.814Z,9.42
2019-02-19T11:29:12.085Z,9.43
2019-02-19T11:30:16.609Z,9.44
2019-02-19T11:31:20.551Z,9.46
2019-02-19T11:32:26.288Z,9.48
2019-02-19T11:33:30.819Z,9.51
2019-02-19T11:34:35.084Z,9.55
2019-02-19T11:35:39.189Z,9.60
2019-02-19T11:36:44.050Z,9.65
2019-02-19T11:37:48.000Z,9.71
2019-02-19T11:38:52.179Z,9.77
2019-02-19T11:39:56.463Z,9.81
2019-02-19T11:41:00.336Z,9.85
2019-02-19T11:42:04.925Z,9.91
2019-02-19T11:43:09.184Z,9.94
2019-02-19T11:44:13.391Z,9.99
2019-02-19T11:45:17.537Z,10.03
2019-02-19T11:46:21.748Z,10.06
2019-02-19T11:47:26.747Z,10.11
2019-02-19T11:48:36.906Z,10.13
2019-02-19T11:49:37.289Z,10.16
2019-02-19T11:50:42.229Z,10.19
2019-02-19T11:51:46.175Z,10.23
2019-02-19T11:52:50.352Z,10.25
2019-02-19T11:53:54.527Z,10.29
2019-02-19T11:54:58.384Z,10.32
2019-02-19T11:56:02.608Z,10.37
2019-02-19T11:57:06.608Z,10.40
2019-02-19T11:58:10.846Z,10.43
2019-02-19T11:59:14.846Z,10.45
2019-02-19T12:00:22.286Z,10.47
2019-02-19T12:01:26.587Z,10.50
2019-02-19T12:02:33.013Z,10.53
2019-02-19T12:03:36.541Z,10.55
2019-02-19T12:04:41.039Z,10.57
2019-02-19T12:05:45.289Z,10.59
2019-02-19T12:06:49.977Z,10.61
2019-02-19T12:07:53.993Z,10.62
2019-02-19T12:08:58.100Z,10.63
2019-02-19T12:10:02.483Z,10.64
2019-02-19T12:11:06.701Z,10.65
2019-02-19T12:12:10.987Z,10.64
2019-02-19T12:13:14.945Z,10.64
2019-02-19T12:14:18.805Z,10.64
2019-02-19T12:15:22.932Z,10.64
2019-02-19T12:16:27.227Z,10.63
2019-02-19T12:17:31.231Z,10.64
2019-02-19T12:18:35.096Z,10.66
2019-02-19T12:19:39.732Z,10.67
2019-02-19T12:20:44.003Z,10.69
2019-02-19T12:21:47.951Z,10.71
2019-02-19T12:22:52.232Z,10.74
2019-02-19T12:23:56.215Z,10.79
2019-02-19T12:25:00.290Z,10.82
2019-02-19T12:26:04.570Z,10.87
2019-02-19T12:27:09.013Z,10.93
2019-02-19T12:28:13.291Z,10.98
2019-02-19T12:29:17.591Z,11.07
2019-02-19T12:30:21.644Z,11.15
2019-02-19T12:31:25.547Z,11.22
2019-02-19T12:32:30.235Z,11.29
2019-02-19T12:33:34.499Z,11.36
2019-02-19T12:34:38.841Z,11.43
2019-02-19T12:35:42.886Z,11.51
2019-02-19T12:36:47.352Z,11.57
2019-02-19T12:37:51.560Z,11.62
2019-02-19T12:38:55.513Z,11.68
2019-02-19T12:39:59.586Z,11.73
2019-02-19T12:41:04.026Z,11.77
2019-02-19T12:42:08.384Z,11.79
2019-02-19T12:43:12.667Z,11.82
2019-02-19T12:44:16.608Z,11.83
2019-02-19T12:45:20.608Z,11.82
2019-02-19T12:46:24.633Z,11.82
2019-02-19T12:47:28.747Z,11.79
2019-02-19T12:48:33.087Z,11.75
2019-02-19T12:49:37.027Z,11.69
2019-02-19T12:50:41.033Z,11.62
2019-02-19T12:51:45.027Z,11.57
2019-02-19T12:52:49.419Z,11.48
2019-02-19T12:53:53.824Z,11.42
2019-02-19T12:54:57.764Z,11.36
2019-02-19T12:56:01.815Z,11.28
2019-02-19T12:57:06.134Z,11.25
2019-02-19T12:58:10.444Z,11.24
2019-02-19T12:59:17.206Z,11.25
2019-02-19T13:00:21.217Z,11.27
2019-02-19T13:01:28.498Z,11.32
2019-02-19T13:02:32.694Z,11.35
2019-02-19T13:03:36.765Z,11.40
2019-02-19T13:04:40.945Z,11.41
2019-02-19T13:05:44.938Z,11.43
2019-02-19T13:06:49.231Z,11.47
2019-02-19T13:07:53.624Z,11.49
2019-02-19T13:08:57.570Z,11.53
2019-02-19T13:10:01.784Z,11.54
2019-02-19T13:11:05.800Z,11.56
2019-02-19T13:12:10.740Z,11.58
2019-02-19T13:13:14.745Z,11.58
2019-02-19T13:14:19.059Z,11.58
2019-02-19T13:15:23.364Z,11.57
2019-02-19T13:16:27.503Z,11.57
2019-02-19T13:17:31.714Z,11.58
2019-02-19T13:18:35.730Z,11.59
2019-02-19T13:19:39.831Z,11.60
2019-02-19T13:20:43.830Z,11.62
2019-02-19T13:21:48.019Z,11.62
2019-02-19T13:22:51.951Z,11.64
2019-02-19T13:23:56.138Z,11.66
2019-02-19T13:24:59.996Z,11.67
2019-02-19T13:26:03.928Z,11.69
2019-02-19T13:27:07.950Z,11.72
2019-02-19T13:28:11.893Z,11.74
2019-02-19T13:29:15.898Z,11.76
2019-02-19T13:30:19.932Z,11.79
2019-02-19T13:31:23.928Z,11.81
2019-02-19T13:32:27.928Z,11.83
2019-02-19T13:33:31.875Z,11.84
2019-02-19T13:34:35.799Z,11.84
2019-02-19T13:35:40.047Z,11.87
2019-02-19T13:36:44.047Z,11.88
2019-02-19T13:37:48.231Z,11.90
2019-02-19T13:38:52.174Z,11.91
2019-02-19T13:39:56.184Z,11.93
2019-02-19T13:41:00.177Z,11.94
2019-02-19T13:42:04.104Z,11.99
2019-02-19T13:43:08.350Z,11.95
2019-02-19T13:44:12.642Z,11.95
2019-02-19T13:45:16.662Z,11.91
2019-02-19T13:46:20.622Z,11.88
2019-02-19T13:47:24.567Z,11.87
2019-02-19T13:48:28.627Z,11.84
2019-02-19T13:49:32.933Z,11.83
2019-02-19T13:50:36.953Z,11.82
2019-02-19T13:51:41.547Z,11.82
2019-02-19T13:53:03.416Z,11.80
2019-02-19T13:54:21.805Z,11.80
2019-02-19T13:55:29.495Z,11.78
2019-02-19T13:56:33.583Z,11.80
2019-02-19T13:57:37.699Z,11.80
2019-02-19T13:58:42.008Z,11.80
2019-02-19T13:59:46.052Z,11.79
2019-02-19T14:00:50.365Z,11.78
2019-02-19T14:01:54.386Z,11.78
2019-02-19T14:02:58.654Z,11.77
2019-02-19T14:04:02.880Z,11.77
2019-02-19T14:05:08.505Z,11.80
2019-02-19T14:06:12.706Z,11.84
2019-02-19T14:07:16.990Z,11.85
2019-02-19T14:08:21.020Z,11.89
2019-02-19T14:09:25.068Z,11.91
2019-02-19T14:10:29.295Z,11.94
2019-02-19T14:11:33.487Z,11.89